F/V Vent Du Large — FVHN — position and weather

sailwx.info

Track history (hours):
 
Tides and Currents Weather Stations Pressure Air Temp Water Temp Dewpoint Dewpoint Depression Visibility Wind Speed Wind Dir Waves Ship Positions

F/V Vent Du Large

Last reported at 2018-Jan-12 14:30 UTC. Time now 2018-Jan-19 05:54 UTC.
Position N 44°27' W 001°26'.

Length 14 m.

Type: Fishing. MMSI: 227582000.

Date/timePositionNaut miles runAvg speedWind from/ knotsBaromVisibWave heightAir tempDewpointWater temp
2018-Jan-12 14:30N 44°27' W 001°26'3 2.9
2018-Jan-12 13:33N 44°30' W 001°27'0 3.3
2018-Jan-12 13:28N 44°30' W 001°27'2 3.3
2018-Jan-12 13:00N 44°31' W 001°27'2 3.1
2018-Jan-12 12:31N 44°33' W 001°26'2 3.1
2018-Jan-12 12:00N 44°34' W 001°26'2 3.2
2018-Jan-12 11:31N 44°36' W 001°26'2 3.2
2018-Jan-12 11:00N 44°38' W 001°27'2 3.3
2018-Jan-12 10:30N 44°39' W 001°28'1 2.5
2018-Jan-12 10:00N 44°40' W 001°28'1 1.7
2018-Jan-12 09:30N 44°41' W 001°28'2 3.5
2018-Jan-12 09:00N 44°43' W 001°28'2 3.4
2018-Jan-12 08:30N 44°44' W 001°28'2 3.2
2018-Jan-12 08:00N 44°46' W 001°28'2 3.2
2018-Jan-12 07:30N 44°48' W 001°28'2 3.0
2018-Jan-12 06:59N 44°49' W 001°28'1 3.0
2018-Jan-12 06:30N 44°51' W 001°27'2 3.2
2018-Jan-12 06:00N 44°52' W 001°27'1 2.1
2018-Jan-12 05:30N 44°53' W 001°27'5 1.0
2018-Jan-12 00:36N 44°52' W 001°34'0 3.4
2018-Jan-12 00:29N 44°52' W 001°34'2 3.5
2018-Jan-11 23:48N 44°50' W 001°33'1 3.5
2018-Jan-11 23:22N 44°48' W 001°32'1 3.3
2018-Jan-11 23:01N 44°47' W 001°32'1 2.2
2018-Jan-11 22:30N 44°47' W 001°34'2 3.4
2018-Jan-11 21:47N 44°49' W 001°34'1 3.4
2018-Jan-11 21:26N 44°51' W 001°34'10 0.4
2018-Jan-10 19:31N 44°56' W 001°23'0 8.5
2018-Jan-10 19:30N 44°56' W 001°23'4 8.7
2018-Jan-10 18:59N 44°52' W 001°25'4 8.4
2018-Jan-10 18:30N 44°48' W 001°27'4 8.6
2018-Jan-10 18:00N 44°44' W 001°26'4 8.9
2018-Jan-10 17:30N 44°39' W 001°25'3 6.0
2018-Jan-10 17:01N 44°36' W 001°24'1 2.0
2018-Jan-10 16:30N 44°35' W 001°25'2 3.2
2018-Jan-10 16:00N 44°34' W 001°25'2 3.7
2018-Jan-10 15:30N 44°32' W 001°25'3 3.9
2018-Jan-10 14:49N 44°29' W 001°26'1 3.8
2018-Jan-10 14:30N 44°28' W 001°26'1 0.8
2018-Jan-10 13:28N 44°27' W 001°25'1 3.2
2018-Jan-10 13:00N 44°29' W 001°25'2 2.9
2018-Jan-10 12:27N 44°30' W 001°25'1 3.1
2018-Jan-10 12:00N 44°32' W 001°24'2 3.1
2018-Jan-10 11:30N 44°33' W 001°23'1 2.6
2018-Jan-10 10:57N 44°34' W 001°25'1 2.6
2018-Jan-10 10:30N 44°35' W 001°25'2 3.1
2018-Jan-10 10:00N 44°37' W 001°25'1 2.4
2018-Jan-10 09:30N 44°35' W 001°25'2 3.2
2018-Jan-10 09:00N 44°34' W 001°25'2 3.2
2018-Jan-10 08:30N 44°33' W 001°24'2 3.3
2018-Jan-10 08:00N 44°31' W 001°24'4 5.7
2018-Jan-10 07:15N 44°27' W 001°24'59 9.4
2018-Jan-10 00:59N 43°30' W 001°50'6 9.6
2018-Jan-10 00:22N 43°25' W 001°53'5 0.8
2018-Jan-09 18:02N 43°20' W 001°56'1 9.4
2018-Jan-09 17:54N 43°22' W 001°55'9 8.5
2018-Jan-09 16:52N 43°30' W 001°51'61 7.4
2018-Jan-09 08:40N 44°28' W 001°26'1 3.2
2018-Jan-09 08:28N 44°28' W 001°25'1 3.0
2018-Jan-09 08:00N 44°30' W 001°25'1 2.7
2018-Jan-09 07:30N 44°30' W 001°26'3 3.7
2018-Jan-09 06:47N 44°27' W 001°27'2 1.8
2018-Jan-09 05:40N 44°25' W 001°28'3 3.4
2018-Jan-09 04:48N 44°28' W 001°30'1 3.1
2018-Jan-09 04:30N 44°29' W 001°30'2 3.3
2018-Jan-09 04:00N 44°30' W 001°30'2 3.2
2018-Jan-09 03:30N 44°32' W 001°30'1 2.1
2018-Jan-09 03:00N 44°31' W 001°31'2 3.5
2018-Jan-09 02:29N 44°29' W 001°31'2 3.6
2018-Jan-09 02:00N 44°28' W 001°31'1 2.5
2018-Jan-09 01:29N 44°27' W 001°29'2 3.1
2018-Jan-09 00:57N 44°28' W 001°28'1 1.8
2018-Jan-09 00:18N 44°27' W 001°28'1 3.4
2018-Jan-09 00:00N 44°26' W 001°28'2 2.0
2018-Jan-08 23:02N 44°27' W 001°30'0 3.5
2018-Jan-08 22:57N 44°27' W 001°30'2 3.4
2018-Jan-08 22:30N 44°29' W 001°29'2 3.2
2018-Jan-08 22:00N 44°30' W 001°27'2 3.3
2018-Jan-08 21:26N 44°28' W 001°26'1 0.3
2018-Jan-08 18:12N 44°27' W 001°26'1 3.4
2018-Jan-08 18:00N 44°28' W 001°26'2 3.4
2018-Jan-08 17:30N 44°29' W 001°25'2 3.1
2018-Jan-08 17:01N 44°31' W 001°25'1 2.1
2018-Jan-08 16:30N 44°30' W 001°26'2 3.7
2018-Jan-08 15:56N 44°28' W 001°27'2 3.7
2018-Jan-08 15:30N 44°26' W 001°27'1 0.3
2018-Jan-08 12:19N 44°27' W 001°26'1 1.6
2018-Jan-08 11:43N 44°28' W 001°25'1 3.2
2018-Jan-08 11:30N 44°28' W 001°25'2 3.1
2018-Jan-08 11:00N 44°30' W 001°25'1 1.9
2018-Jan-08 10:18N 44°29' W 001°26'1 3.5
2018-Jan-08 09:59N 44°28' W 001°26'4 0.9
2018-Jan-08 05:28N 44°26' W 001°31'2 3.5
2018-Jan-08 04:59N 44°28' W 001°31'2 3.4
2018-Jan-08 04:28N 44°30' W 001°31'1 2.1
2018-Jan-08 04:00N 44°29' W 001°29'2 1.0
2018-Jan-08 01:51N 44°27' W 001°30'1 3.6
2018-Jan-08 01:30N 44°28' W 001°30'2 3.5
2018-Jan-08 01:00N 44°30' W 001°29'1 2.9
2018-Jan-08 00:30N 44°30' W 001°27'2 3.5
2018-Jan-07 23:54N 44°28' W 001°27'4 3.2
2018-Jan-07 22:36N 44°25' W 001°25'1 3.3
2018-Jan-07 22:13N 44°26' W 001°24'1 4.1
2018-Jan-07 22:00N 44°27' W 001°24'3 4.2
2018-Jan-07 21:21N 44°29' W 001°24'2 2.2
2018-Jan-07 20:29N 44°27' W 001°24'3 1.7
2018-Jan-07 18:42N 44°24' W 001°24'1 3.3
2018-Jan-07 18:30N 44°25' W 001°24'2 3.4
2018-Jan-07 17:48N 44°27' W 001°24'2 3.3
2018-Jan-07 17:13N 44°29' W 001°23'1 3.7
2018-Jan-07 17:00N 44°30' W 001°23'1 1.3
2018-Jan-07 16:26N 44°29' W 001°23'2 3.5
2018-Jan-07 15:57N 44°28' W 001°23'3 0.8
2018-Jan-07 11:29N 44°24' W 001°23'2 3.0
2018-Jan-07 10:59N 44°26' W 001°23'2 3.1
2018-Jan-07 10:30N 44°27' W 001°23'2 3.2
2018-Jan-07 09:57N 44°29' W 001°23'1 3.2
2018-Jan-07 09:31N 44°31' W 001°23'2 3.2
2018-Jan-07 09:00N 44°32' W 001°24'1 1.7
2018-Jan-07 08:29N 44°33' W 001°24'1 2.9
2018-Jan-07 08:00N 44°32' W 001°24'2 3.5
2018-Jan-07 07:30N 44°30' W 001°24'2 2.2
2018-Jan-07 06:33N 44°28' W 001°24'1 2.8
2018-Jan-07 06:08N 44°29' W 001°24'1 3.1
2018-Jan-07 05:58N 44°29' W 001°24'1 3.2
2018-Jan-07 05:30N 44°31' W 001°24'2 3.3
2018-Jan-07 05:01N 44°32' W 001°25'2 3.3
2018-Jan-07 04:30N 44°34' W 001°26'2 3.8
2018-Jan-07 04:00N 44°36' W 001°27'1 1.7
2018-Jan-07 03:30N 44°35' W 001°26'2 3.5
2018-Jan-07 03:00N 44°33' W 001°26'1 2.9
2018-Jan-07 02:30N 44°32' W 001°25'1 2.7
2018-Jan-07 02:00N 44°33' W 001°25'2 3.6
2018-Jan-07 01:30N 44°35' W 001°27'4 3.6
2018-Jan-07 00:30N 44°38' W 001°28'2 3.7
2018-Jan-07 00:01N 44°40' W 001°29'2 3.7
2018-Jan-06 23:30N 44°42' W 001°29'2 3.5
2018-Jan-06 23:00N 44°43' W 001°29'1 1.7
2018-Jan-06 22:30N 44°44' W 001°28'2 3.6
2018-Jan-06 22:00N 44°46' W 001°28'2 3.6
2018-Jan-06 21:30N 44°48' W 001°28'2 3.7
2018-Jan-06 21:00N 44°50' W 001°27'40 2.3
2018-Jan-06 03:34N 45°29' W 001°21'2 0.5
2018-Jan-06 00:09N 45°30' W 001°23'1 3.8
2018-Jan-05 23:58N 45°30' W 001°24'  
Track history (hours):
 
Tides and Currents Weather Stations Pressure Air Temp Water Temp Dewpoint Dewpoint Depression Visibility Wind Speed Wind Dir Waves Ship Positions

F/V Vent Du Large

Last reported at 2018-Jan-12 14:30 UTC. Time now 2018-Jan-19 05:54 UTC.
Position N 44°27' W 001°26'.

Length 14 m.

Type: Fishing. MMSI: 227582000.

Date/timePositionNaut miles runAvg speedWind from/ knotsBaromVisibWave heightAir tempDewpointWater temp
2018-Jan-12 14:30N 44°27' W 001°26'3 2.9
2018-Jan-12 13:33N 44°30' W 001°27'0 3.3
2018-Jan-12 13:28N 44°30' W 001°27'2 3.3
2018-Jan-12 13:00N 44°31' W 001°27'2 3.1
2018-Jan-12 12:31N 44°33' W 001°26'2 3.1
2018-Jan-12 12:00N 44°34' W 001°26'2 3.2
2018-Jan-12 11:31N 44°36' W 001°26'2 3.2
2018-Jan-12 11:00N 44°38' W 001°27'2 3.3
2018-Jan-12 10:30N 44°39' W 001°28'1 2.5
2018-Jan-12 10:00N 44°40' W 001°28'1 1.7
2018-Jan-12 09:30N 44°41' W 001°28'2 3.5
2018-Jan-12 09:00N 44°43' W 001°28'2 3.4
2018-Jan-12 08:30N 44°44' W 001°28'2 3.2
2018-Jan-12 08:00N 44°46' W 001°28'2 3.2
2018-Jan-12 07:30N 44°48' W 001°28'2 3.0
2018-Jan-12 06:59N 44°49' W 001°28'1 3.0
2018-Jan-12 06:30N 44°51' W 001°27'2 3.2
2018-Jan-12 06:00N 44°52' W 001°27'1 2.1
2018-Jan-12 05:30N 44°53' W 001°27'5 1.0
2018-Jan-12 00:36N 44°52' W 001°34'0 3.4
2018-Jan-12 00:29N 44°52' W 001°34'2 3.5
2018-Jan-11 23:48N 44°50' W 001°33'1 3.5
2018-Jan-11 23:22N 44°48' W 001°32'1 3.3
2018-Jan-11 23:01N 44°47' W 001°32'1 2.2
2018-Jan-11 22:30N 44°47' W 001°34'2 3.4
2018-Jan-11 21:47N 44°49' W 001°34'1 3.4
2018-Jan-11 21:26N 44°51' W 001°34'10 0.4
2018-Jan-10 19:31N 44°56' W 001°23'0 8.5
2018-Jan-10 19:30N 44°56' W 001°23'4 8.7
2018-Jan-10 18:59N 44°52' W 001°25'4 8.4
2018-Jan-10 18:30N 44°48' W 001°27'4 8.6
2018-Jan-10 18:00N 44°44' W 001°26'4 8.9
2018-Jan-10 17:30N 44°39' W 001°25'3 6.0
2018-Jan-10 17:01N 44°36' W 001°24'1 2.0
2018-Jan-10 16:30N 44°35' W 001°25'2 3.2
2018-Jan-10 16:00N 44°34' W 001°25'2 3.7
2018-Jan-10 15:30N 44°32' W 001°25'3 3.9
2018-Jan-10 14:49N 44°29' W 001°26'1 3.8
2018-Jan-10 14:30N 44°28' W 001°26'1 0.8
2018-Jan-10 13:28N 44°27' W 001°25'1 3.2
2018-Jan-10 13:00N 44°29' W 001°25'2 2.9
2018-Jan-10 12:27N 44°30' W 001°25'1 3.1
2018-Jan-10 12:00N 44°32' W 001°24'2 3.1
2018-Jan-10 11:30N 44°33' W 001°23'1 2.6
2018-Jan-10 10:57N 44°34' W 001°25'1 2.6
2018-Jan-10 10:30N 44°35' W 001°25'2 3.1
2018-Jan-10 10:00N 44°37' W 001°25'1 2.4
2018-Jan-10 09:30N 44°35' W 001°25'2 3.2
2018-Jan-10 09:00N 44°34' W 001°25'2 3.2
2018-Jan-10 08:30N 44°33' W 001°24'2 3.3
2018-Jan-10 08:00N 44°31' W 001°24'4 5.7
2018-Jan-10 07:15N 44°27' W 001°24'59 9.4
2018-Jan-10 00:59N 43°30' W 001°50'6 9.6
2018-Jan-10 00:22N 43°25' W 001°53'5 0.8
2018-Jan-09 18:02N 43°20' W 001°56'1 9.4
2018-Jan-09 17:54N 43°22' W 001°55'9 8.5
2018-Jan-09 16:52N 43°30' W 001°51'61 7.4
2018-Jan-09 08:40N 44°28' W 001°26'1 3.2
2018-Jan-09 08:28N 44°28' W 001°25'1 3.0
2018-Jan-09 08:00N 44°30' W 001°25'1 2.7
2018-Jan-09 07:30N 44°30' W 001°26'3 3.7
2018-Jan-09 06:47N 44°27' W 001°27'2 1.8
2018-Jan-09 05:40N 44°25' W 001°28'3 3.4
2018-Jan-09 04:48N 44°28' W 001°30'1 3.1
2018-Jan-09 04:30N 44°29' W 001°30'2 3.3
2018-Jan-09 04:00N 44°30' W 001°30'2 3.2
2018-Jan-09 03:30N 44°32' W 001°30'1 2.1
2018-Jan-09 03:00N 44°31' W 001°31'2 3.5
2018-Jan-09 02:29N 44°29' W 001°31'2 3.6
2018-Jan-09 02:00N 44°28' W 001°31'1 2.5
2018-Jan-09 01:29N 44°27' W 001°29'2 3.1
2018-Jan-09 00:57N 44°28' W 001°28'1 1.8
2018-Jan-09 00:18N 44°27' W 001°28'1 3.4
2018-Jan-09 00:00N 44°26' W 001°28'2 2.0
2018-Jan-08 23:02N 44°27' W 001°30'0 3.5
2018-Jan-08 22:57N 44°27' W 001°30'2 3.4
2018-Jan-08 22:30N 44°29' W 001°29'2 3.2
2018-Jan-08 22:00N 44°30' W 001°27'2 3.3
2018-Jan-08 21:26N 44°28' W 001°26'1 0.3
2018-Jan-08 18:12N 44°27' W 001°26'1 3.4
2018-Jan-08 18:00N 44°28' W 001°26'2 3.4
2018-Jan-08 17:30N 44°29' W 001°25'2 3.1
2018-Jan-08 17:01N 44°31' W 001°25'1 2.1
2018-Jan-08 16:30N 44°30' W 001°26'2 3.7
2018-Jan-08 15:56N 44°28' W 001°27'2 3.7
2018-Jan-08 15:30N 44°26' W 001°27'1 0.3
2018-Jan-08 12:19N 44°27' W 001°26'1 1.6
2018-Jan-08 11:43N 44°28' W 001°25'1 3.2
2018-Jan-08 11:30N 44°28' W 001°25'2 3.1
2018-Jan-08 11:00N 44°30' W 001°25'1 1.9
2018-Jan-08 10:18N 44°29' W 001°26'1 3.5
2018-Jan-08 09:59N 44°28' W 001°26'4 0.9
2018-Jan-08 05:28N 44°26' W 001°31'2 3.5
2018-Jan-08 04:59N 44°28' W 001°31'2 3.4
2018-Jan-08 04:28N 44°30' W 001°31'1 2.1
2018-Jan-08 04:00N 44°29' W 001°29'2 1.0
2018-Jan-08 01:51N 44°27' W 001°30'1 3.6
2018-Jan-08 01:30N 44°28' W 001°30'2 3.5
2018-Jan-08 01:00N 44°30' W 001°29'1 2.9
2018-Jan-08 00:30N 44°30' W 001°27'2 3.5
2018-Jan-07 23:54N 44°28' W 001°27'4 3.2
2018-Jan-07 22:36N 44°25' W 001°25'1 3.3
2018-Jan-07 22:13N 44°26' W 001°24'1 4.1
2018-Jan-07 22:00N 44°27' W 001°24'3 4.2
2018-Jan-07 21:21N 44°29' W 001°24'2 2.2
2018-Jan-07 20:29N 44°27' W 001°24'3 1.7
2018-Jan-07 18:42N 44°24' W 001°24'1 3.3
2018-Jan-07 18:30N 44°25' W 001°24'2 3.4
2018-Jan-07 17:48N 44°27' W 001°24'2 3.3
2018-Jan-07 17:13N 44°29' W 001°23'1 3.7
2018-Jan-07 17:00N 44°30' W 001°23'1 1.3
2018-Jan-07 16:26N 44°29' W 001°23'2 3.5
2018-Jan-07 15:57N 44°28' W 001°23'3 0.8
2018-Jan-07 11:29N 44°24' W 001°23'2 3.0
2018-Jan-07 10:59N 44°26' W 001°23'2 3.1
2018-Jan-07 10:30N 44°27' W 001°23'2 3.2
2018-Jan-07 09:57N 44°29' W 001°23'1 3.2
2018-Jan-07 09:31N 44°31' W 001°23'2 3.2
2018-Jan-07 09:00N 44°32' W 001°24'1 1.7
2018-Jan-07 08:29N 44°33' W 001°24'1 2.9
2018-Jan-07 08:00N 44°32' W 001°24'2 3.5
2018-Jan-07 07:30N 44°30' W 001°24'2 2.2
2018-Jan-07 06:33N 44°28' W 001°24'1 2.8
2018-Jan-07 06:08N 44°29' W 001°24'1 3.1
2018-Jan-07 05:58N 44°29' W 001°24'1 3.2
2018-Jan-07 05:30N 44°31' W 001°24'2 3.3
2018-Jan-07 05:01N 44°32' W 001°25'2 3.3
2018-Jan-07 04:30N 44°34' W 001°26'2 3.8
2018-Jan-07 04:00N 44°36' W 001°27'1 1.7
2018-Jan-07 03:30N 44°35' W 001°26'2 3.5
2018-Jan-07 03:00N 44°33' W 001°26'1 2.9
2018-Jan-07 02:30N 44°32' W 001°25'1 2.7
2018-Jan-07 02:00N 44°33' W 001°25'2 3.6
2018-Jan-07 01:30N 44°35' W 001°27'4 3.6
2018-Jan-07 00:30N 44°38' W 001°28'2 3.7
2018-Jan-07 00:01N 44°40' W 001°29'2 3.7
2018-Jan-06 23:30N 44°42' W 001°29'2 3.5
2018-Jan-06 23:00N 44°43' W 001°29'1 1.7
2018-Jan-06 22:30N 44°44' W 001°28'2 3.6
2018-Jan-06 22:00N 44°46' W 001°28'2 3.6
2018-Jan-06 21:30N 44°48' W 001°28'2 3.7
2018-Jan-06 21:00N 44°50' W 001°27'40 2.3
2018-Jan-06 03:34N 45°29' W 001°21'2 0.5
2018-Jan-06 00:09N 45°30' W 001°23'1 3.8
2018-Jan-05 23:58N 45°30' W 001°24'  

Dump ship's entire track history